createdAt,value
2018-02-17T00:00:18.968Z,26.05
2018-02-17T00:02:47.474Z,28.83
2018-02-17T00:05:16.877Z,30.00
2018-02-17T00:07:46.064Z,27.98
2018-02-17T00:10:14.907Z,28.23
2018-02-17T00:12:43.452Z,26.27
2018-02-17T00:15:11.813Z,27.08
2018-02-17T00:17:41.156Z,28.48
2018-02-17T00:20:09.564Z,26.85
2018-02-17T00:22:38.726Z,25.90
2018-02-17T00:25:07.091Z,27.50
2018-02-17T00:27:35.482Z,28.80
2018-02-17T00:30:03.882Z,27.77
2018-02-17T00:32:33.009Z,27.00
2018-02-17T00:35:02.160Z,27.00
2018-02-17T00:37:30.530Z,26.55
2018-02-17T00:40:00.652Z,28.40
2018-02-17T00:42:30.817Z,24.48
2018-02-17T00:45:00.445Z,26.00
2018-02-17T00:47:31.214Z,27.30
2018-02-17T00:49:59.592Z,26.35
2018-02-17T00:52:28.024Z,27.83
2018-02-17T00:54:57.222Z,28.85
2018-02-17T00:57:26.382Z,27.00
2018-02-17T00:59:54.765Z,30.10
2018-02-17T01:02:23.173Z,29.92
2018-02-17T01:04:51.538Z,31.00
2018-02-17T01:07:19.902Z,31.02
2018-02-17T01:09:48.294Z,29.80
2018-02-17T01:12:16.689Z,32.90
2018-02-17T01:14:45.840Z,31.00
2018-02-17T01:17:14.221Z,30.95
2018-02-17T01:19:42.810Z,32.00
2018-02-17T01:22:11.171Z,33.08
2018-02-17T01:24:39.531Z,31.10
2018-02-17T01:27:08.693Z,33.08
2018-02-17T01:29:37.061Z,36.22
2018-02-17T01:32:05.462Z,32.53
2018-02-17T01:34:33.837Z,31.70
2018-02-17T01:37:02.518Z,36.20
2018-02-17T01:39:30.901Z,38.58
2018-02-17T01:41:59.291Z,37.65
2018-02-17T01:44:27.681Z,37.13
2018-02-17T01:46:56.821Z,36.35
2018-02-17T01:49:25.206Z,33.85
2018-02-17T01:51:53.614Z,35.22
2018-02-17T01:54:22.655Z,34.80
2018-02-17T01:56:51.490Z,32.60
2018-02-17T01:59:19.873Z,32.28
2018-02-17T02:01:48.260Z,30.02
2018-02-17T02:04:18.200Z,33.45
2018-02-17T02:06:47.946Z,31.30
2018-02-17T02:09:16.350Z,32.55
2018-02-17T02:11:45.019Z,29.90
2018-02-17T02:14:13.426Z,29.30
2018-02-17T02:16:41.847Z,30.60
2018-02-17T02:19:10.245Z,32.17
2018-02-17T02:21:38.614Z,33.17
2018-02-17T02:24:07.004Z,32.78
2018-02-17T02:26:35.370Z,29.85
2018-02-17T02:29:04.170Z,31.20
2018-02-17T02:31:32.542Z,30.33
2018-02-17T02:34:00.934Z,34.72
2018-02-17T02:36:29.567Z,32.35
2018-02-17T02:38:58.697Z,33.72
2018-02-17T02:41:27.106Z,34.92
2018-02-17T02:43:55.478Z,33.65
2018-02-17T02:46:24.050Z,33.13
2018-02-17T02:48:52.427Z,33.08
2018-02-17T02:51:20.794Z,34.50
2018-02-17T02:53:49.191Z,36.17
2018-02-17T02:56:17.562Z,31.23
2018-02-17T02:58:45.950Z,33.22
2018-02-17T03:01:14.318Z,31.33
2018-02-17T03:03:43.721Z,28.15
2018-02-17T03:06:12.098Z,28.58
2018-02-17T03:08:40.958Z,29.08
2018-02-17T03:11:10.127Z,28.58
2018-02-17T03:13:38.506Z,25.65
2018-02-17T03:16:06.895Z,25.30
2018-02-17T03:18:35.255Z,27.92
2018-02-17T03:21:03.806Z,27.00
2018-02-17T03:23:32.169Z,26.23
2018-02-17T03:26:00.525Z,24.20
2018-02-17T03:28:29.689Z,27.20
2018-02-17T03:30:58.054Z,28.25
2018-02-17T03:33:26.505Z,27.33
2018-02-17T03:35:54.872Z,26.60
2018-02-17T03:38:23.285Z,27.80
2018-02-17T03:40:51.642Z,26.77
2018-02-17T03:43:20.009Z,27.08
2018-02-17T03:45:48.401Z,28.50
2018-02-17T03:48:16.807Z,26.30
2018-02-17T03:50:45.211Z,29.17
2018-02-17T03:53:13.573Z,27.50
2018-02-17T03:55:42.234Z,23.35
2018-02-17T03:58:10.598Z,25.62
2018-02-17T04:00:38.956Z,25.42
2018-02-17T04:03:07.346Z,23.98
2018-02-17T04:05:35.720Z,23.00
2018-02-17T04:08:04.117Z,23.35
2018-02-17T04:10:32.482Z,23.20
2018-02-17T04:13:01.282Z,23.90
2018-02-17T04:15:29.645Z,20.30
2018-02-17T04:17:58.010Z,23.87
2018-02-17T04:20:27.158Z,21.60
2018-02-17T04:22:55.530Z,21.52
2018-02-17T04:25:23.918Z,22.75
2018-02-17T04:27:52.286Z,22.33
2018-02-17T04:30:21.604Z,23.70
2018-02-17T04:32:51.432Z,24.17
2018-02-17T04:35:20.650Z,21.73
2018-02-17T04:37:49.623Z,24.23
2018-02-17T04:40:22.052Z,23.52
2018-02-17T04:42:55.479Z,25.75
2018-02-17T04:45:24.580Z,24.33
2018-02-17T04:48:03.816Z,24.75
2018-02-17T04:50:39.125Z,22.37
2018-02-17T04:53:13.257Z,22.62
2018-02-17T04:55:47.930Z,20.90
2018-02-17T05:01:34.133Z,20.48
2018-02-17T05:04:02.498Z,20.98
2018-02-17T05:06:37.122Z,20.77
2018-02-17T05:09:06.254Z,21.12
2018-02-17T05:11:34.674Z,22.58
2018-02-17T05:14:09.477Z,20.12
2018-02-17T05:16:41.529Z,23.17
2018-02-17T05:19:15.505Z,22.48
2018-02-17T05:21:44.669Z,22.65
2018-02-17T05:24:22.959Z,22.55
2018-02-17T05:26:52.191Z,22.48
2018-02-17T05:29:20.822Z,23.40
2018-02-17T05:31:50.465Z,22.35
2018-02-17T05:34:23.181Z,20.80
2018-02-17T05:36:52.322Z,24.40
2018-02-17T05:39:20.722Z,23.77
2018-02-17T05:41:51.873Z,20.58
2018-02-17T05:44:25.789Z,21.65
2018-02-17T05:46:54.158Z,20.35
2018-02-17T05:49:25.022Z,20.52
2018-02-17T05:51:54.252Z,22.35
2018-02-17T05:54:22.651Z,20.92
2018-02-17T05:56:51.060Z,21.37
2018-02-17T05:59:19.491Z,22.85
2018-02-17T06:01:47.869Z,22.48
2018-02-17T06:04:16.237Z,21.08
2018-02-17T06:06:44.789Z,21.42
2018-02-17T06:09:13.922Z,23.48
2018-02-17T06:11:42.322Z,22.87
2018-02-17T06:14:10.690Z,23.23
2018-02-17T06:16:39.254Z,24.58
2018-02-17T06:19:07.624Z,21.92
2018-02-17T06:21:36.038Z,22.23
2018-02-17T06:24:04.403Z,24.08
2018-02-17T06:26:32.769Z,23.58
2018-02-17T06:29:01.162Z,24.65
2018-02-17T06:31:29.539Z,24.45
2018-02-17T06:33:58.218Z,25.00
2018-02-17T06:36:26.590Z,27.10
2018-02-17T06:38:55.688Z,21.98
2018-02-17T06:41:24.076Z,24.40
2018-02-17T06:43:52.451Z,22.55
2018-02-17T06:46:20.845Z,25.50
2018-02-17T06:48:51.726Z,23.77
2018-02-17T06:51:21.364Z,26.00
2018-02-17T06:53:49.725Z,27.13
2018-02-17T06:56:18.324Z,25.90
2018-02-17T06:58:46.728Z,27.00
2018-02-17T07:01:15.111Z,28.65
2018-02-17T07:03:43.505Z,25.88
2018-02-17T07:06:12.733Z,30.95
2018-02-17T07:08:41.198Z,28.48
2018-02-17T07:11:13.157Z,27.92
2018-02-17T07:13:42.517Z,27.75
2018-02-17T07:16:10.893Z,27.92
2018-02-17T07:18:39.607Z,27.15
2018-02-17T07:21:08.006Z,28.98
2018-02-17T07:23:37.213Z,27.62
2018-02-17T07:26:06.398Z,26.90
2018-02-17T07:28:35.538Z,27.92
2018-02-17T07:31:04.128Z,28.50
2018-02-17T07:33:32.646Z,28.35
2018-02-17T07:36:01.030Z,28.95
2018-02-17T07:38:29.427Z,27.80
2018-02-17T07:40:58.979Z,27.48
2018-02-17T07:43:28.202Z,25.88
2018-02-17T07:45:56.570Z,27.27
2018-02-17T07:48:25.978Z,27.00
2018-02-17T07:50:54.441Z,25.35
2018-02-17T07:53:23.225Z,25.37
2018-02-17T07:55:52.541Z,24.83
2018-02-17T07:58:20.979Z,26.45
2018-02-17T08:00:49.425Z,24.45
2018-02-17T08:03:19.406Z,27.10
2018-02-17T08:05:50.343Z,25.98
2018-02-17T08:08:19.758Z,28.05
2018-02-17T08:10:48.702Z,25.83
2018-02-17T08:13:17.526Z,28.02
2018-02-17T08:15:46.320Z,25.10
2018-02-17T08:18:14.892Z,29.40
2018-02-17T08:20:45.291Z,25.67
2018-02-17T08:23:16.580Z,28.30
2018-02-17T08:25:46.093Z,26.25
2018-02-17T08:28:17.518Z,25.95
2018-02-17T08:30:46.206Z,26.10
2018-02-17T08:33:14.834Z,26.42
2018-02-17T08:35:44.047Z,26.73
2018-02-17T08:38:13.286Z,24.00
2018-02-17T08:40:43.613Z,25.73
2018-02-17T08:43:13.418Z,28.20
2018-02-17T08:45:43.584Z,25.60
2018-02-17T08:48:12.648Z,26.50
2018-02-17T08:50:41.849Z,26.98
2018-02-17T08:53:10.242Z,25.88
2018-02-17T08:55:38.959Z,22.50
2018-02-17T08:58:08.260Z,23.48
2018-02-17T09:00:36.743Z,21.85
2018-02-17T09:03:06.042Z,22.85
2018-02-17T09:05:35.452Z,22.75
2018-02-17T09:08:03.846Z,20.88
2018-02-17T09:10:49.195Z,22.40
2018-02-17T09:13:17.601Z,20.88
2018-02-17T09:15:45.983Z,18.85
2018-02-17T09:18:14.393Z,18.30
2018-02-17T09:20:42.813Z,18.05
2018-02-17T09:23:11.986Z,16.55
2018-02-17T09:25:42.182Z,16.85
2018-02-17T09:28:11.148Z,18.87
2018-02-17T09:30:39.574Z,18.40
2018-02-17T09:33:08.237Z,17.30
2018-02-17T09:35:37.578Z,18.40
2018-02-17T09:38:06.797Z,17.27
2018-02-17T09:40:37.751Z,19.35
2018-02-17T09:43:06.274Z,20.27
2018-02-17T09:45:34.915Z,18.87
2018-02-17T09:48:03.437Z,18.05
2018-02-17T09:50:32.403Z,17.87
2018-02-17T09:53:00.933Z,23.30
2018-02-17T09:55:30.394Z,21.45
2018-02-17T09:57:59.042Z,21.08
2018-02-17T10:00:27.414Z,21.90
2018-02-17T10:02:56.601Z,19.85
2018-02-17T10:05:25.755Z,19.75
2018-02-17T10:07:54.119Z,19.50
2018-02-17T10:10:22.515Z,19.05
2018-02-17T10:12:51.080Z,20.88
2018-02-17T10:15:19.866Z,19.60
2018-02-17T10:17:48.230Z,21.12
2018-02-17T10:20:16.841Z,21.15
2018-02-17T10:22:45.631Z,17.40
2018-02-17T10:25:13.993Z,19.08
2018-02-17T10:27:42.446Z,16.23
2018-02-17T10:30:11.036Z,18.15
2018-02-17T10:32:40.127Z,19.15
2018-02-17T10:35:09.054Z,17.02
2018-02-17T10:37:37.438Z,17.15
2018-02-17T10:40:05.838Z,20.77
2018-02-17T10:42:34.212Z,18.95
2018-02-17T10:45:02.626Z,18.08
2018-02-17T10:47:31.763Z,18.50
2018-02-17T10:50:00.553Z,16.75
2018-02-17T10:52:28.920Z,18.95
2018-02-17T10:54:57.284Z,18.10
2018-02-17T10:57:25.687Z,17.12
2018-02-17T10:59:54.063Z,19.65
2018-02-17T11:02:22.472Z,17.95
2018-02-17T11:04:50.847Z,17.42
2018-02-17T11:07:19.415Z,19.08
2018-02-17T11:09:47.784Z,17.67
2018-02-17T11:12:16.154Z,16.58
2018-02-17T11:14:44.546Z,18.00
2018-02-17T11:17:12.909Z,19.27
2018-02-17T11:19:41.300Z,17.98
2018-02-17T11:22:09.686Z,17.80
2018-02-17T11:24:38.097Z,18.98
2018-02-17T11:27:06.463Z,16.83
2018-02-17T11:29:35.589Z,20.52
2018-02-17T11:32:04.746Z,22.08
2018-02-17T11:34:33.123Z,19.85
2018-02-17T11:37:02.473Z,19.98
2018-02-17T11:39:30.861Z,20.92
2018-02-17T11:41:59.460Z,22.00
2018-02-17T11:44:27.927Z,19.05
2018-02-17T11:46:56.313Z,21.75
2018-02-17T11:49:24.754Z,22.35
2018-02-17T11:51:54.564Z,20.23
2018-02-17T11:54:23.754Z,21.40
2018-02-17T11:56:52.127Z,19.00
2018-02-17T11:59:21.372Z,18.77
2018-02-17T12:01:49.785Z,19.65
2018-02-17T12:04:18.150Z,19.08
2018-02-17T12:06:47.070Z,20.80
2018-02-17T12:09:15.434Z,19.02
2018-02-17T12:11:43.854Z,21.95
2018-02-17T12:14:13.412Z,18.27
2018-02-17T12:16:44.017Z,21.20
2018-02-17T12:19:12.933Z,21.00
2018-02-17T12:21:42.635Z,21.85
2018-02-17T12:24:11.217Z,17.27
2018-02-17T12:26:40.633Z,20.17
2018-02-17T12:29:09.103Z,20.35
2018-02-17T12:31:38.402Z,20.95
2018-02-17T12:34:07.294Z,20.17
2018-02-17T12:36:38.515Z,19.95
2018-02-17T12:39:07.689Z,20.37
2018-02-17T12:41:38.176Z,23.50
2018-02-17T12:44:08.332Z,24.27
2018-02-17T12:46:37.498Z,25.77
2018-02-17T12:49:05.872Z,25.12
2018-02-17T12:51:34.305Z,22.13
2018-02-17T12:54:03.462Z,25.30
2018-02-17T12:56:33.649Z,22.77
2018-02-17T12:59:02.056Z,23.33
2018-02-17T13:01:33.742Z,23.15
2018-02-17T13:04:03.657Z,22.50
2018-02-17T13:06:32.069Z,21.75
2018-02-17T13:09:00.483Z,21.70
2018-02-17T13:11:30.502Z,21.75
2018-02-17T13:13:58.908Z,19.77
2018-02-17T13:16:28.086Z,19.95
2018-02-17T13:18:56.642Z,19.50
2018-02-17T13:21:25.068Z,19.15
2018-02-17T13:23:54.326Z,18.58
2018-02-17T13:26:23.003Z,18.73
2018-02-17T13:28:51.523Z,15.55
2018-02-17T13:31:20.269Z,18.50
2018-02-17T13:33:48.841Z,16.83
2018-02-17T13:36:17.245Z,16.92
2018-02-17T13:38:46.160Z,16.60
2018-02-17T13:41:15.862Z,18.15
2018-02-17T13:43:44.250Z,17.42
2018-02-17T13:46:13.203Z,18.17
2018-02-17T13:48:41.854Z,18.20
2018-02-17T13:51:10.844Z,17.85
2018-02-17T13:53:39.237Z,19.70
2018-02-17T13:56:07.613Z,17.00
2018-02-17T13:58:36.013Z,17.80
2018-02-17T14:01:04.445Z,19.55
2018-02-17T14:03:33.601Z,18.35
2018-02-17T14:06:02.166Z,18.83
2018-02-17T14:08:30.620Z,18.05
2018-02-17T14:10:59.036Z,18.12
2018-02-17T14:13:27.719Z,17.58
2018-02-17T14:15:56.981Z,17.00
2018-02-17T14:18:25.546Z,16.75
2018-02-17T14:20:54.924Z,16.83
2018-02-17T14:23:24.371Z,16.75
2018-02-17T14:25:53.170Z,17.40
2018-02-17T14:28:23.220Z,15.15
2018-02-17T14:30:51.795Z,17.42
2018-02-17T14:33:20.491Z,17.10
2018-02-17T14:35:49.340Z,16.35
2018-02-17T14:38:17.950Z,16.20
2018-02-17T14:40:46.455Z,15.85
2018-02-17T14:43:15.062Z,16.15
2018-02-17T14:45:44.421Z,14.87
2018-02-17T14:50:47.731Z,14.57
2018-02-17T14:53:16.117Z,14.98
2018-02-17T14:55:44.559Z,14.07
2018-02-17T14:58:12.943Z,13.60
2018-02-17T15:00:41.316Z,13.70
2018-02-17T15:03:09.802Z,12.73
2018-02-17T15:05:38.384Z,13.20
2018-02-17T15:08:06.836Z,13.23
2018-02-17T15:10:36.579Z,12.75
2018-02-17T15:13:05.142Z,10.98
2018-02-17T15:15:33.609Z,11.75
2018-02-17T15:18:03.043Z,11.73
2018-02-17T15:20:31.458Z,10.52
2018-02-17T15:22:59.926Z,10.10
2018-02-17T15:25:29.149Z,10.40
2018-02-17T15:27:58.410Z,11.65
2018-02-17T15:30:26.837Z,9.52
2018-02-17T15:32:55.373Z,9.40
2018-02-17T15:35:23.742Z,9.52
2018-02-17T15:37:53.680Z,8.63
2018-02-17T15:40:22.217Z,8.55
2018-02-17T15:42:50.626Z,7.90
2018-02-17T15:45:19.266Z,7.68
2018-02-17T15:47:47.869Z,8.40
2018-02-17T15:50:17.270Z,8.88
2018-02-17T15:52:46.124Z,9.30
2018-02-17T15:55:14.831Z,8.48
2018-02-17T15:57:44.419Z,9.23
2018-02-17T16:00:14.204Z,9.25
2018-02-17T16:02:44.432Z,10.05
2018-02-17T16:05:14.022Z,9.05
2018-02-17T16:07:42.728Z,8.57
2018-02-17T16:10:12.899Z,8.52
2018-02-17T16:12:41.674Z,7.40
2018-02-17T16:15:10.764Z,16.83
2018-02-17T16:17:40.139Z,8.95
2018-02-17T16:20:08.871Z,9.02
2018-02-17T16:22:38.702Z,9.90
2018-02-17T16:25:08.752Z,8.73
2018-02-17T16:27:38.170Z,9.50
2018-02-17T16:30:11.434Z,9.48
2018-02-17T16:32:40.530Z,9.45
2018-02-17T16:35:09.427Z,12.37
2018-02-17T16:37:39.285Z,11.93
2018-02-17T16:40:08.024Z,14.65
2018-02-17T16:42:37.793Z,9.50
2018-02-17T16:45:08.030Z,9.55
2018-02-17T16:47:38.074Z,8.60
2018-02-17T16:50:07.372Z,9.77
2018-02-17T16:52:36.130Z,10.30
2018-02-17T16:55:05.133Z,8.90
2018-02-17T16:57:40.210Z,10.25
2018-02-17T17:00:12.320Z,8.60
2018-02-17T17:02:42.343Z,9.95
2018-02-17T17:05:11.989Z,11.45
2018-02-17T17:07:41.383Z,9.95
2018-02-17T17:10:13.501Z,10.43
2018-02-17T17:12:43.648Z,11.63
2018-02-17T17:15:13.066Z,11.93
2018-02-17T17:17:44.827Z,12.43
2018-02-17T17:20:18.918Z,12.27
2018-02-17T17:22:53.144Z,11.38
2018-02-17T17:25:31.426Z,13.15
2018-02-17T17:28:04.863Z,13.32
2018-02-17T17:30:36.051Z,13.57
2018-02-17T17:33:09.946Z,16.17
2018-02-17T17:35:40.924Z,14.55
2018-02-17T17:38:09.953Z,16.45
2018-02-17T17:40:40.571Z,14.90
2018-02-17T17:43:09.364Z,16.37
2018-02-17T17:45:38.389Z,16.58
2018-02-17T17:48:06.987Z,16.95
2018-02-17T17:50:36.881Z,17.12
2018-02-17T17:53:05.446Z,16.35
2018-02-17T17:55:34.535Z,15.60
2018-02-17T17:58:03.936Z,16.48
2018-02-17T18:00:33.746Z,15.70
2018-02-17T18:03:02.754Z,16.05
2018-02-17T18:05:31.480Z,17.60
2018-02-17T18:08:00.621Z,18.08
2018-02-17T18:10:30.978Z,17.02
2018-02-17T18:12:59.853Z,16.33
2018-02-17T18:15:28.590Z,15.25
2018-02-17T18:17:57.051Z,18.02
2018-02-17T18:20:27.318Z,18.20
2018-02-17T18:22:56.098Z,17.52
2018-02-17T18:25:25.005Z,16.70
2018-02-17T18:27:53.658Z,15.90
2018-02-17T18:30:22.957Z,17.48
2018-02-17T18:32:51.866Z,18.00
2018-02-17T18:35:20.301Z,18.52
2018-02-17T18:37:50.071Z,17.08
2018-02-17T18:40:18.819Z,17.60
2018-02-17T18:42:48.138Z,19.17
2018-02-17T18:45:16.585Z,18.55
2018-02-17T18:47:45.781Z,19.80
2018-02-17T18:50:14.322Z,19.25
2018-02-17T18:52:42.747Z,19.17
2018-02-17T18:55:12.458Z,18.65
2018-02-17T18:57:41.705Z,18.48
2018-02-17T19:00:10.475Z,19.00
2018-02-17T19:02:39.170Z,17.83
2018-02-17T19:05:09.323Z,19.60
2018-02-17T19:07:38.114Z,18.35
2018-02-17T19:10:07.386Z,17.30
2018-02-17T19:12:36.429Z,16.80
2018-02-17T19:15:05.323Z,18.67
2018-02-17T19:17:34.331Z,17.15
2018-02-17T19:20:03.791Z,17.50
2018-02-17T19:22:32.656Z,16.65
2018-02-17T19:25:01.582Z,16.73
2018-02-17T19:27:32.222Z,14.77
2018-02-17T19:30:01.132Z,16.65
2018-02-17T19:32:32.176Z,15.70
2018-02-17T19:35:01.205Z,16.02
2018-02-17T19:37:29.685Z,16.10
2018-02-17T19:39:58.386Z,15.93
2018-02-17T19:42:27.583Z,15.85
2018-02-17T19:44:55.961Z,15.50
2018-02-17T19:47:24.360Z,16.02
2018-02-17T19:49:52.730Z,16.80
2018-02-17T19:52:23.507Z,16.92
2018-02-17T19:54:54.154Z,18.45
2018-02-17T19:57:24.657Z,17.35
2018-02-17T19:59:57.115Z,17.73
2018-02-17T20:02:27.089Z,17.60
2018-02-17T20:04:57.529Z,19.23
2018-02-17T20:07:29.488Z,17.75
2018-02-17T20:10:01.189Z,20.67
2018-02-17T20:12:31.686Z,17.65
2018-02-17T20:15:01.386Z,18.00
2018-02-17T20:17:30.828Z,16.23
2018-02-17T20:20:01.856Z,18.77
2018-02-17T20:22:32.002Z,18.10
2018-02-17T20:25:01.707Z,17.08
2018-02-17T20:27:32.108Z,19.65
2018-02-17T20:30:03.417Z,18.52
2018-02-17T20:32:37.061Z,20.12
2018-02-17T20:35:05.889Z,19.65
2018-02-17T20:37:38.432Z,19.30
2018-02-17T20:40:10.079Z,20.20
2018-02-17T20:42:40.481Z,20.10
2018-02-17T20:45:10.247Z,18.20
2018-02-17T20:47:43.416Z,18.08
2018-02-17T20:50:13.525Z,17.58
2018-02-17T20:52:43.468Z,16.23
2018-02-17T20:55:13.043Z,19.90
2018-02-17T20:57:43.038Z,16.50
2018-02-17T21:00:14.007Z,17.20
2018-02-17T21:02:42.490Z,19.98
2018-02-17T21:05:11.022Z,19.83
2018-02-17T21:07:39.688Z,20.27
2018-02-17T21:10:08.416Z,18.55
2018-02-17T21:12:37.802Z,18.08
2018-02-17T21:15:06.549Z,18.92
2018-02-17T21:17:34.991Z,17.98
2018-02-17T21:20:05.326Z,17.27
2018-02-17T21:22:34.461Z,16.10
2018-02-17T21:25:02.836Z,17.42
2018-02-17T21:27:32.236Z,15.15
2018-02-17T21:30:00.839Z,17.98
2018-02-17T21:32:29.254Z,14.93
2018-02-17T21:34:58.016Z,16.42
2018-02-17T21:37:26.806Z,18.90
2018-02-17T21:39:55.732Z,18.45
2018-02-17T21:42:25.053Z,33.17
2018-02-17T21:44:54.607Z,19.80
2018-02-17T21:47:23.623Z,17.02
2018-02-17T21:49:52.849Z,16.45
2018-02-17T21:52:22.396Z,18.20
2018-02-17T21:54:51.842Z,18.33
2018-02-17T21:57:21.451Z,17.80
2018-02-17T21:59:50.458Z,17.40
2018-02-17T22:02:18.947Z,18.80
2018-02-17T22:04:48.692Z,18.10
2018-02-17T22:07:17.582Z,18.12
2018-02-17T22:09:46.011Z,19.98
2018-02-17T22:12:15.479Z,18.55
2018-02-17T22:14:44.289Z,18.70
2018-02-17T22:17:14.461Z,19.25
2018-02-17T22:19:43.715Z,19.33
2018-02-17T22:22:12.858Z,19.87
2018-02-17T22:24:41.448Z,19.77
2018-02-17T22:27:09.829Z,21.83
2018-02-17T22:29:38.512Z,22.62
2018-02-17T22:32:08.466Z,23.70
2018-02-17T22:34:37.698Z,19.62
2018-02-17T22:37:06.091Z,20.50
2018-02-17T22:39:34.461Z,19.83
2018-02-17T22:42:02.868Z,20.33
2018-02-17T22:44:31.258Z,20.05
2018-02-17T22:47:00.012Z,19.73
2018-02-17T22:49:29.232Z,21.27
2018-02-17T22:51:57.802Z,18.95
2018-02-17T22:54:26.499Z,21.02
2018-02-17T22:56:54.902Z,22.02
2018-02-17T22:59:23.360Z,20.88
2018-02-17T23:01:51.734Z,23.10
2018-02-17T23:04:20.125Z,24.20
2018-02-17T23:06:48.502Z,22.58
2018-02-17T23:09:17.102Z,22.10
2018-02-17T23:11:46.241Z,21.42
2018-02-17T23:14:14.622Z,22.73
2018-02-17T23:16:45.332Z,20.55
2018-02-17T23:19:14.478Z,20.95
2018-02-17T23:21:42.869Z,23.52
2018-02-17T23:24:11.339Z,23.45
2018-02-17T23:26:41.093Z,21.73
2018-02-17T23:29:10.230Z,23.95
2018-02-17T23:31:38.636Z,22.35
2018-02-17T23:34:07.070Z,22.67
2018-02-17T23:36:35.585Z,23.83
2018-02-17T23:39:04.905Z,24.05
2018-02-17T23:41:33.667Z,22.37
2018-02-17T23:44:02.121Z,23.60
2018-02-17T23:46:30.495Z,22.87
2018-02-17T23:48:58.893Z,24.48
2018-02-17T23:51:27.344Z,25.23
2018-02-17T23:53:56.481Z,24.83
2018-02-17T23:56:24.891Z,24.63
2018-02-17T23:59:03.137Z,24.85
